sensor_id;sensor_type;location;lat;lon;timestamp;pressure;altitude;pressure_sealevel;temperature;humidity
49194;BME280;35029;50.804;12.866;2023-05-14T00:00:18;97991.66;;;10.91;95.00
49194;BME280;35029;50.804;12.866;2023-05-14T00:02:43;97969.78;;;10.82;94.96
49194;BME280;35029;50.804;12.866;2023-05-14T00:05:09;97974.75;;;10.92;96.18
49194;BME280;35029;50.804;12.866;2023-05-14T00:07:35;97973.34;;;10.96;95.54
49194;BME280;35029;50.804;12.866;2023-05-14T00:10:01;97942.00;;;10.78;95.66
49194;BME280;35029;50.804;12.866;2023-05-14T00:12:26;97952.22;;;10.81;95.41
49194;BME280;35029;50.804;12.866;2023-05-14T00:14:52;97962.22;;;10.86;95.90
49194;BME280;35029;50.804;12.866;2023-05-14T00:17:18;97956.13;;;10.86;96.66
49194;BME280;35029;50.804;12.866;2023-05-14T00:19:45;97972.28;;;10.91;96.26
49194;BME280;35029;50.804;12.866;2023-05-14T00:22:11;97953.88;;;10.82;96.43
49194;BME280;35029;50.804;12.866;2023-05-14T00:24:37;97946.41;;;10.71;96.37
49194;BME280;35029;50.804;12.866;2023-05-14T00:27:03;97967.16;;;10.89;96.20
49194;BME280;35029;50.804;12.866;2023-05-14T00:29:28;97936.00;;;10.70;96.96
49194;BME280;35029;50.804;12.866;2023-05-14T00:31:54;97958.19;;;10.90;97.34
49194;BME280;35029;50.804;12.866;2023-05-14T00:34:20;97958.19;;;10.90;97.56
49194;BME280;35029;50.804;12.866;2023-05-14T00:36:45;97958.19;;;10.90;97.83
49194;BME280;35029;50.804;12.866;2023-05-14T00:39:12;97945.91;;;10.82;98.18
49194;BME280;35029;50.804;12.866;2023-05-14T00:41:38;97951.25;;;10.89;97.98
49194;BME280;35029;50.804;12.866;2023-05-14T00:44:03;97934.66;;;10.80;98.10
49194;BME280;35029;50.804;12.866;2023-05-14T00:46:29;97956.66;;;11.03;97.71
49194;BME280;35029;50.804;12.866;2023-05-14T00:48:55;97953.63;;;11.06;98.52
49194;BME280;35029;50.804;12.866;2023-05-14T00:51:21;97911.25;;;10.84;98.36
49194;BME280;35029;50.804;12.866;2023-05-14T00:53:47;97924.34;;;10.92;99.11
49194;BME280;35029;50.804;12.866;2023-05-14T00:56:14;97932.97;;;11.01;99.06
49194;BME280;35029;50.804;12.866;2023-05-14T00:58:40;97937.31;;;11.09;99.11
49194;BME280;35029;50.804;12.866;2023-05-14T01:01:05;97937.56;;;11.14;99.23
49194;BME280;35029;50.804;12.866;2023-05-14T01:03:32;97939.41;;;11.20;98.29
49194;BME280;35029;50.804;12.866;2023-05-14T01:06:18;97940.88;;;11.23;97.81
49194;BME280;35029;50.804;12.866;2023-05-14T01:09:04;97910.34;;;11.05;98.42
49194;BME280;35029;50.804;12.866;2023-05-14T01:11:54;97945.16;;;11.24;98.25
49194;BME280;35029;50.804;12.866;2023-05-14T01:14:55;97940.09;;;11.29;97.86
49194;BME280;35029;50.804;12.866;2023-05-14T01:17:20;97938.06;;;11.31;97.60
49194;BME280;35029;50.804;12.866;2023-05-14T01:19:47;97932.31;;;11.27;97.55
49194;BME280;35029;50.804;12.866;2023-05-14T01:22:15;97904.03;;;11.06;97.80
49194;BME280;35029;50.804;12.866;2023-05-14T01:24:40;97923.91;;;11.17;96.85
49194;BME280;35029;50.804;12.866;2023-05-14T01:27:15;97945.78;;;11.26;97.57
49194;BME280;35029;50.804;12.866;2023-05-14T01:29:44;97936.56;;;11.22;97.36
49194;BME280;35029;50.804;12.866;2023-05-14T01:32:14;97944.97;;;11.25;96.87
49194;BME280;35029;50.804;12.866;2023-05-14T01:34:43;97915.47;;;11.07;97.37
49194;BME280;35029;50.804;12.866;2023-05-14T01:37:11;97939.34;;;11.07;98.52
49194;BME280;35029;50.804;12.866;2023-05-14T01:39:37;97941.75;;;11.02;99.45
49194;BME280;35029;50.804;12.866;2023-05-14T01:42:05;97908.78;;;10.82;99.85
49194;BME280;35029;50.804;12.866;2023-05-14T01:44:32;97942.13;;;10.98;99.46
49194;BME280;35029;50.804;12.866;2023-05-14T01:46:57;97938.88;;;10.96;99.37
49194;BME280;35029;50.804;12.866;2023-05-14T01:49:23;97899.31;;;10.73;99.76
49194;BME280;35029;50.804;12.866;2023-05-14T01:51:49;97902.59;;;10.75;99.81
49194;BME280;35029;50.804;12.866;2023-05-14T01:54:14;97902.97;;;10.72;99.25
49194;BME280;35029;50.804;12.866;2023-05-14T01:56:40;97938.22;;;10.94;99.28
49194;BME280;35029;50.804;12.866;2023-05-14T01:59:05;97931.09;;;10.95;99.04
49194;BME280;35029;50.804;12.866;2023-05-14T02:01:32;97928.75;;;10.85;99.29
49194;BME280;35029;50.804;12.866;2023-05-14T02:03:59;97925.50;;;10.83;99.72
49194;BME280;35029;50.804;12.866;2023-05-14T02:06:25;97904.97;;;10.63;100.00
49194;BME280;35029;50.804;12.866;2023-05-14T02:08:51;97918.94;;;10.79;100.00
49194;BME280;35029;50.804;12.866;2023-05-14T02:11:16;97926.50;;;10.82;100.00
49194;BME280;35029;50.804;12.866;2023-05-14T02:13:42;97889.66;;;10.65;99.57
49194;BME280;35029;50.804;12.866;2023-05-14T02:16:08;97932.50;;;10.91;99.48
49194;BME280;35029;50.804;12.866;2023-05-14T02:18:33;97927.16;;;10.84;99.65
49194;BME280;35029;50.804;12.866;2023-05-14T02:20:59;97918.13;;;10.78;100.00
49194;BME280;35029;50.804;12.866;2023-05-14T02:23:24;97885.50;;;10.56;99.87
49194;BME280;35029;50.804;12.866;2023-05-14T02:25:51;97913.78;;;10.71;99.14
49194;BME280;35029;50.804;12.866;2023-05-14T02:28:17;97921.94;;;10.69;100.00
49194;BME280;35029;50.804;12.866;2023-05-14T02:30:42;97925.00;;;10.73;100.00
49194;BME280;35029;50.804;12.866;2023-05-14T02:33:08;97893.91;;;10.60;100.00
49194;BME280;35029;50.804;12.866;2023-05-14T02:35:33;97923.53;;;10.63;100.00
49194;BME280;35029;50.804;12.866;2023-05-14T02:37:59;97927.78;;;10.64;100.00
49194;BME280;35029;50.804;12.866;2023-05-14T02:40:24;97859.13;;;10.26;99.89
49194;BME280;35029;50.804;12.866;2023-05-14T02:42:51;97918.03;;;10.65;99.31
49194;BME280;35029;50.804;12.866;2023-05-14T02:45:16;97920.03;;;10.63;100.00
49194;BME280;35029;50.804;12.866;2023-05-14T02:47:42;97920.03;;;10.63;99.61
49194;BME280;35029;50.804;12.866;2023-05-14T02:50:08;97905.56;;;10.65;98.36
49194;BME280;35029;50.804;12.866;2023-05-14T02:52:33;97914.88;;;10.55;98.80
49194;BME280;35029;50.804;12.866;2023-05-14T02:54:59;97897.09;;;10.48;99.30
49194;BME280;35029;50.804;12.866;2023-05-14T02:57:25;97909.19;;;10.58;98.38
49194;BME280;35029;50.804;12.866;2023-05-14T02:59:50;97884.59;;;10.42;97.99
49194;BME280;35029;50.804;12.866;2023-05-14T03:02:16;97891.66;;;10.57;98.01
49194;BME280;35029;50.804;12.866;2023-05-14T03:04:41;97901.09;;;10.66;97.72
49194;BME280;35029;50.804;12.866;2023-05-14T03:07:07;97890.69;;;10.64;97.15
49194;BME280;35029;50.804;12.866;2023-05-14T03:09:32;97889.88;;;10.64;97.09
49194;BME280;35029;50.804;12.866;2023-05-14T03:11:59;97884.13;;;10.60;97.21
49194;BME280;35029;50.804;12.866;2023-05-14T03:14:25;97891.94;;;10.69;97.20
49194;BME280;35029;50.804;12.866;2023-05-14T03:16:50;97901.63;;;10.83;96.91
49194;BME280;35029;50.804;12.866;2023-05-14T03:19:17;97893.69;;;10.83;96.64
49194;BME280;35029;50.804;12.866;2023-05-14T03:21:42;97890.25;;;10.89;96.79
49194;BME280;35029;50.804;12.866;2023-05-14T03:24:08;97873.72;;;10.87;96.39
49194;BME280;35029;50.804;12.866;2023-05-14T03:26:34;97889.03;;;10.92;96.44
49194;BME280;35029;50.804;12.866;2023-05-14T03:29:01;97874.81;;;10.71;96.76
49194;BME280;35029;50.804;12.866;2023-05-14T03:31:26;97878.78;;;10.82;96.44
49194;BME280;35029;50.804;12.866;2023-05-14T03:33:55;97842.19;;;10.71;95.63
49194;BME280;35029;50.804;12.866;2023-05-14T03:36:20;97856.56;;;10.83;95.31
49194;BME280;35029;50.804;12.866;2023-05-14T03:38:46;97871.56;;;11.04;94.71
49194;BME280;35029;50.804;12.866;2023-05-14T03:41:11;97867.28;;;11.03;94.81
49194;BME280;35029;50.804;12.866;2023-05-14T03:43:37;97854.84;;;11.04;93.64
49194;BME280;35029;50.804;12.866;2023-05-14T03:46:03;97864.69;;;11.10;93.32
49194;BME280;35029;50.804;12.866;2023-05-14T03:48:28;97838.06;;;10.96;92.90
49194;BME280;35029;50.804;12.866;2023-05-14T03:50:54;97872.44;;;11.11;92.55
49194;BME280;35029;50.804;12.866;2023-05-14T03:53:19;97888.56;;;11.16;91.95
49194;BME280;35029;50.804;12.866;2023-05-14T03:55:45;97855.41;;;10.92;92.13
49194;BME280;35029;50.804;12.866;2023-05-14T03:58:10;97887.97;;;11.14;91.88
49194;BME280;35029;50.804;12.866;2023-05-14T04:00:42;97893.88;;;11.10;92.43
49194;BME280;35029;50.804;12.866;2023-05-14T04:03:10;97882.81;;;11.06;92.41
49194;BME280;35029;50.804;12.866;2023-05-14T04:05:36;97860.69;;;10.92;92.69
49194;BME280;35029;50.804;12.866;2023-05-14T04:08:01;97858.84;;;10.93;93.08
49194;BME280;35029;50.804;12.866;2023-05-14T04:10:27;97854.97;;;10.89;93.27
49194;BME280;35029;50.804;12.866;2023-05-14T04:12:52;97879.47;;;10.97;92.90
49194;BME280;35029;50.804;12.866;2023-05-14T04:15:21;97876.22;;;10.95;92.71
49194;BME280;35029;50.804;12.866;2023-05-14T04:17:47;97876.03;;;10.97;93.24
49194;BME280;35029;50.804;12.866;2023-05-14T04:20:13;97882.56;;;11.01;92.56
49194;BME280;35029;50.804;12.866;2023-05-14T04:22:38;97878.72;;;11.04;93.04
49194;BME280;35029;50.804;12.866;2023-05-14T04:25:04;97873.41;;;11.04;92.94
49194;BME280;35029;50.804;12.866;2023-05-14T04:27:32;97881.97;;;10.99;93.00
49194;BME280;35029;50.804;12.866;2023-05-14T04:29:57;97878.28;;;11.00;93.29
49194;BME280;35029;50.804;12.866;2023-05-14T04:32:23;97860.53;;;11.01;93.46
49194;BME280;35029;50.804;12.866;2023-05-14T04:34:48;97848.84;;;10.88;92.83
49194;BME280;35029;50.804;12.866;2023-05-14T04:37:14;97879.38;;;11.12;93.12
49194;BME280;35029;50.804;12.866;2023-05-14T04:39:40;97872.03;;;11.14;93.39
49194;BME280;35029;50.804;12.866;2023-05-14T04:42:06;97846.66;;;10.98;93.00
49194;BME280;35029;50.804;12.866;2023-05-14T04:44:33;97871.44;;;11.19;92.44
49194;BME280;35029;50.804;12.866;2023-05-14T04:46:58;97855.13;;;11.15;92.24
49194;BME280;35029;50.804;12.866;2023-05-14T04:49:24;97860.22;;;11.17;92.18
49194;BME280;35029;50.804;12.866;2023-05-14T04:51:49;97856.97;;;11.22;92.41
49194;BME280;35029;50.804;12.866;2023-05-14T04:54:15;97865.97;;;11.27;93.05
49194;BME280;35029;50.804;12.866;2023-05-14T04:56:41;97860.91;;;11.32;93.21
49194;BME280;35029;50.804;12.866;2023-05-14T04:59:06;97853.78;;;11.33;93.51
49194;BME280;35029;50.804;12.866;2023-05-14T05:01:32;97849.28;;;11.33;93.11
49194;BME280;35029;50.804;12.866;2023-05-14T05:03:57;97857.06;;;11.42;92.73
49194;BME280;35029;50.804;12.866;2023-05-14T05:06:23;97847.47;;;11.41;93.45
49194;BME280;35029;50.804;12.866;2023-05-14T05:08:49;97849.94;;;11.49;93.08
49194;BME280;35029;50.804;12.866;2023-05-14T05:11:14;97860.19;;;11.59;91.96
49194;BME280;35029;50.804;12.866;2023-05-14T05:13:40;97829.91;;;11.40;91.84
49194;BME280;35029;50.804;12.866;2023-05-14T05:16:05;97841.19;;;11.55;91.72
49194;BME280;35029;50.804;12.866;2023-05-14T05:18:31;97857.72;;;11.57;91.40
49194;BME280;35029;50.804;12.866;2023-05-14T05:20:57;97862.84;;;11.52;92.22
49194;BME280;35029;50.804;12.866;2023-05-14T05:23:23;97860.56;;;11.49;93.16
49194;BME280;35029;50.804;12.866;2023-05-14T05:25:48;97856.09;;;11.49;93.28
49194;BME280;35029;50.804;12.866;2023-05-14T05:28:15;97809.84;;;11.24;93.66
49194;BME280;35029;50.804;12.866;2023-05-14T05:30:40;97841.78;;;11.44;93.73
49194;BME280;35029;50.804;12.866;2023-05-14T05:33:06;97843.22;;;11.53;92.65
49194;BME280;35029;50.804;12.866;2023-05-14T05:35:31;97845.50;;;11.70;92.24
49194;BME280;35029;50.804;12.866;2023-05-14T05:37:57;97857.41;;;11.80;91.83
49194;BME280;35029;50.804;12.866;2023-05-14T05:40:23;97851.25;;;11.73;92.28
49194;BME280;35029;50.804;12.866;2023-05-14T05:42:48;97833.47;;;11.67;92.20
49194;BME280;35029;50.804;12.866;2023-05-14T05:45:14;97849.66;;;11.86;91.72
49194;BME280;35029;50.804;12.866;2023-05-14T05:47:39;97847.81;;;11.79;91.48
49194;BME280;35029;50.804;12.866;2023-05-14T05:50:05;97832.47;;;11.75;91.10
49194;BME280;35029;50.804;12.866;2023-05-14T05:52:31;97827.56;;;11.78;91.24
49194;BME280;35029;50.804;12.866;2023-05-14T05:54:57;97821.44;;;11.84;91.49
49194;BME280;35029;50.804;12.866;2023-05-14T05:57:22;97845.88;;;12.15;91.58
49194;BME280;35029;50.804;12.866;2023-05-14T05:59:48;97847.91;;;12.33;91.21
49194;BME280;35029;50.804;12.866;2023-05-14T06:02:14;97836.44;;;12.39;91.04
49194;BME280;35029;50.804;12.866;2023-05-14T06:04:39;97849.16;;;12.64;90.35
49194;BME280;35029;50.804;12.866;2023-05-14T06:07:05;97841.34;;;12.76;88.52
49194;BME280;35029;50.804;12.866;2023-05-14T06:09:30;97807.41;;;12.64;87.03
49194;BME280;35029;50.804;12.866;2023-05-14T06:11:56;97839.47;;;12.90;86.90
49194;BME280;35029;50.804;12.866;2023-05-14T06:14:21;97846.63;;;13.02;86.94
49194;BME280;35029;50.804;12.866;2023-05-14T06:16:47;97842.09;;;13.10;85.30
49194;BME280;35029;50.804;12.866;2023-05-14T06:19:13;97819.59;;;13.06;84.28
49194;BME280;35029;50.804;12.866;2023-05-14T06:21:38;97815.47;;;13.16;84.42
49194;BME280;35029;50.804;12.866;2023-05-14T06:24:04;97833.03;;;13.38;84.14
49194;BME280;35029;50.804;12.866;2023-05-14T06:26:30;97829.28;;;13.45;83.60
49194;BME280;35029;50.804;12.866;2023-05-14T06:28:56;97821.75;;;13.42;82.11
49194;BME280;35029;50.804;12.866;2023-05-14T06:31:21;97837.84;;;13.61;82.54
49194;BME280;35029;50.804;12.866;2023-05-14T06:33:47;97842.72;;;13.71;81.96
49194;BME280;35029;50.804;12.866;2023-05-14T06:36:12;97817.09;;;13.69;81.75
49194;BME280;35029;50.804;12.866;2023-05-14T06:38:38;97822.34;;;13.83;82.44
49194;BME280;35029;50.804;12.866;2023-05-14T06:41:03;97831.69;;;13.99;81.42
49194;BME280;35029;50.804;12.866;2023-05-14T06:43:29;97837.63;;;14.01;79.35
49194;BME280;35029;50.804;12.866;2023-05-14T06:45:54;97799.19;;;13.83;79.92
49194;BME280;35029;50.804;12.866;2023-05-14T06:48:20;97828.91;;;14.12;79.06
49194;BME280;35029;50.804;12.866;2023-05-14T06:50:46;97827.63;;;14.22;78.50
49194;BME280;35029;50.804;12.866;2023-05-14T06:53:13;97825.94;;;14.27;79.05
49194;BME280;35029;50.804;12.866;2023-05-14T06:55:39;97837.34;;;14.41;77.46
49194;BME280;35029;50.804;12.866;2023-05-14T06:58:07;97832.13;;;14.46;76.72
49194;BME280;35029;50.804;12.866;2023-05-14T07:00:33;97826.34;;;14.56;76.71
49194;BME280;35029;50.804;12.866;2023-05-14T07:02:59;97831.78;;;14.68;74.78
49194;BME280;35029;50.804;12.866;2023-05-14T07:05:25;97819.78;;;14.77;76.18
49194;BME280;35029;50.804;12.866;2023-05-14T07:07:52;97818.25;;;14.88;76.74
49194;BME280;35029;50.804;12.866;2023-05-14T07:10:18;97804.31;;;14.86;76.67
49194;BME280;35029;50.804;12.866;2023-05-14T07:12:46;97810.47;;;15.05;75.61
49194;BME280;35029;50.804;12.866;2023-05-14T07:15:12;97771.09;;;14.82;72.75
49194;BME280;35029;50.804;12.866;2023-05-14T07:17:41;97813.06;;;15.12;73.19
49194;BME280;35029;50.804;12.866;2023-05-14T07:20:10;97812.56;;;15.21;73.44
49194;BME280;35029;50.804;12.866;2023-05-14T07:22:37;97805.34;;;15.22;73.25
49194;BME280;35029;50.804;12.866;2023-05-14T07:25:03;97793.66;;;15.23;70.86
49194;BME280;35029;50.804;12.866;2023-05-14T07:27:29;97814.25;;;15.34;71.21
49194;BME280;35029;50.804;12.866;2023-05-14T07:29:54;97802.59;;;15.29;69.27
49194;BME280;35029;50.804;12.866;2023-05-14T07:32:21;97784.25;;;15.32;70.69
49194;BME280;35029;50.804;12.866;2023-05-14T07:34:49;97791.22;;;15.52;70.75
49194;BME280;35029;50.804;12.866;2023-05-14T07:37:14;97803.81;;;15.63;68.03
49194;BME280;35029;50.804;12.866;2023-05-14T07:39:40;97784.72;;;15.60;69.01
49194;BME280;35029;50.804;12.866;2023-05-14T07:42:06;97801.34;;;15.80;67.82
49194;BME280;35029;50.804;12.866;2023-05-14T07:44:31;97789.97;;;15.85;66.33
49194;BME280;35029;50.804;12.866;2023-05-14T07:46:58;97785.78;;;15.89;66.08
49194;BME280;35029;50.804;12.866;2023-05-14T07:49:23;97800.38;;;16.05;66.59
49194;BME280;35029;50.804;12.866;2023-05-14T07:51:49;97795.38;;;16.09;66.62
49194;BME280;35029;50.804;12.866;2023-05-14T07:54:15;97770.72;;;16.07;66.80
49194;BME280;35029;50.804;12.866;2023-05-14T07:56:41;97799.47;;;16.23;65.22
49194;BME280;35029;50.804;12.866;2023-05-14T07:59:06;97799.72;;;16.33;64.98
49194;BME280;35029;50.804;12.866;2023-05-14T08:01:32;97776.56;;;16.27;64.21
49194;BME280;35029;50.804;12.866;2023-05-14T08:03:57;97788.69;;;16.42;64.13
49194;BME280;35029;50.804;12.866;2023-05-14T08:06:24;97803.69;;;16.54;61.28
49194;BME280;35029;50.804;12.866;2023-05-14T08:08:52;97807.88;;;16.62;62.45
49194;BME280;35029;50.804;12.866;2023-05-14T08:11:17;97798.34;;;16.66;61.25
49194;BME280;35029;50.804;12.866;2023-05-14T08:13:43;97797.28;;;16.67;61.99
49194;BME280;35029;50.804;12.866;2023-05-14T08:16:08;97771.56;;;16.66;61.17
49194;BME280;35029;50.804;12.866;2023-05-14T08:18:34;97785.75;;;16.90;60.79
49194;BME280;35029;50.804;12.866;2023-05-14T08:21:00;97727.59;;;16.62;61.38
49194;BME280;35029;50.804;12.866;2023-05-14T08:23:25;97776.94;;;16.66;61.90
49194;BME280;35029;50.804;12.866;2023-05-14T08:25:51;97770.16;;;16.99;62.17
49194;BME280;35029;50.804;12.866;2023-05-14T08:28:16;97781.41;;;17.25;61.77
49194;BME280;35029;50.804;12.866;2023-05-14T08:30:42;97763.53;;;17.02;60.66
49194;BME280;35029;50.804;12.866;2023-05-14T08:33:07;97771.91;;;16.70;61.12
49194;BME280;35029;50.804;12.866;2023-05-14T08:35:33;97746.09;;;16.28;60.71
49194;BME280;35029;50.804;12.866;2023-05-14T08:37:58;97787.28;;;16.63;61.22
49194;BME280;35029;50.804;12.866;2023-05-14T08:40:25;97758.38;;;16.88;60.37
49194;BME280;35029;50.804;12.866;2023-05-14T08:42:51;97755.25;;;17.03;60.08
49194;BME280;35029;50.804;12.866;2023-05-14T08:45:19;97777.72;;;17.02;59.45
49194;BME280;35029;50.804;12.866;2023-05-14T08:47:47;97776.91;;;17.43;59.62
49194;BME280;35029;50.804;12.866;2023-05-14T08:50:14;97774.72;;;17.68;58.14
49194;BME280;35029;50.804;12.866;2023-05-14T08:52:40;97738.97;;;17.80;60.14
49194;BME280;35029;50.804;12.866;2023-05-14T08:55:06;97768.88;;;17.71;58.30
49194;BME280;35029;50.804;12.866;2023-05-14T08:57:33;97768.28;;;17.40;60.26
49194;BME280;35029;50.804;12.866;2023-05-14T08:59:59;97759.59;;;17.33;57.91
49194;BME280;35029;50.804;12.866;2023-05-14T09:02:28;97754.69;;;16.78;58.47
49194;BME280;35029;50.804;12.866;2023-05-14T09:04:57;97742.84;;;16.50;59.84
49194;BME280;35029;50.804;12.866;2023-05-14T09:07:27;97750.00;;;17.09;60.84
49194;BME280;35029;50.804;12.866;2023-05-14T09:09:53;97761.16;;;17.05;60.43
49194;BME280;35029;50.804;12.866;2023-05-14T09:12:20;97747.78;;;17.05;61.27
49194;BME280;35029;50.804;12.866;2023-05-14T09:14:47;97747.56;;;17.07;60.36
49194;BME280;35029;50.804;12.866;2023-05-14T09:17:13;97742.47;;;17.34;59.47
49194;BME280;35029;50.804;12.866;2023-05-14T09:19:42;97715.44;;;16.83;58.45
49194;BME280;35029;50.804;12.866;2023-05-14T09:22:11;97755.03;;;16.93;61.03
49194;BME280;35029;50.804;12.866;2023-05-14T09:24:41;97738.06;;;16.76;61.63
49194;BME280;35029;50.804;12.866;2023-05-14T09:27:14;97754.31;;;16.74;63.04
49194;BME280;35029;50.804;12.866;2023-05-14T09:29:43;97753.03;;;16.88;61.86
49194;BME280;35029;50.804;12.866;2023-05-14T09:32:08;97713.94;;;16.99;62.29
49194;BME280;35029;50.804;12.866;2023-05-14T09:34:35;97750.47;;;17.92;61.12
49194;BME280;35029;50.804;12.866;2023-05-14T09:37:04;97744.03;;;18.44;59.03
49194;BME280;35029;50.804;12.866;2023-05-14T09:39:31;97719.00;;;18.78;59.57
49194;BME280;35029;50.804;12.866;2023-05-14T09:41:57;97752.09;;;19.28;57.89
49194;BME280;35029;50.804;12.866;2023-05-14T09:44:24;97728.56;;;19.35;54.38
49194;BME280;35029;50.804;12.866;2023-05-14T09:46:50;97730.56;;;19.22;53.76
49194;BME280;35029;50.804;12.866;2023-05-14T09:49:16;97727.72;;;19.34;55.71
49194;BME280;35029;50.804;12.866;2023-05-14T09:51:42;97703.84;;;18.88;52.67
49194;BME280;35029;50.804;12.866;2023-05-14T09:54:08;97714.19;;;18.80;56.05
49194;BME280;35029;50.804;12.866;2023-05-14T09:56:35;97717.34;;;18.54;56.43
49194;BME280;35029;50.804;12.866;2023-05-14T09:59:01;97706.75;;;18.26;56.75
49194;BME280;35029;50.804;12.866;2023-05-14T10:01:28;97691.97;;;18.06;56.70
49194;BME280;35029;50.804;12.866;2023-05-14T10:03:54;97707.56;;;18.26;56.69
49194;BME280;35029;50.804;12.866;2023-05-14T10:06:29;97689.91;;;18.13;55.40
49194;BME280;35029;50.804;12.866;2023-05-14T10:09:00;97696.53;;;18.45;54.22
49194;BME280;35029;50.804;12.866;2023-05-14T10:11:30;97674.41;;;18.77;55.53
49194;BME280;35029;50.804;12.866;2023-05-14T10:14:03;97669.72;;;19.38;53.88
49194;BME280;35029;50.804;12.866;2023-05-14T10:16:36;97671.47;;;19.50;54.05
49194;BME280;35029;50.804;12.866;2023-05-14T10:19:10;97681.72;;;19.85;51.22
49194;BME280;35029;50.804;12.866;2023-05-14T10:21:37;97682.16;;;20.04;51.42
49194;BME280;35029;50.804;12.866;2023-05-14T10:24:05;97694.78;;;20.47;45.73
49194;BME280;35029;50.804;12.866;2023-05-14T10:26:31;97670.91;;;20.60;48.28
49194;BME280;35029;50.804;12.866;2023-05-14T10:28:59;97686.31;;;20.70;48.72
49194;BME280;35029;50.804;12.866;2023-05-14T10:31:53;97694.16;;;20.77;47.16
49194;BME280;35029;50.804;12.866;2023-05-14T10:34:33;97665.16;;;21.00;46.56
49194;BME280;35029;50.804;12.866;2023-05-14T10:37:15;97649.03;;;21.20;45.30
49194;BME280;35029;50.804;12.866;2023-05-14T10:42:11;97673.25;;;21.10;48.62
49194;BME280;35029;50.804;12.866;2023-05-14T10:44:42;97666.78;;;21.06;47.23
49194;BME280;35029;50.804;12.866;2023-05-14T10:47:10;97664.03;;;20.90;46.80
49194;BME280;35029;50.804;12.866;2023-05-14T10:49:36;97658.94;;;20.99;45.76
49194;BME280;35029;50.804;12.866;2023-05-14T10:52:01;97650.91;;;21.20;46.88
49194;BME280;35029;50.804;12.866;2023-05-14T10:54:27;97656.31;;;21.40;48.89
49194;BME280;35029;50.804;12.866;2023-05-14T10:56:53;97657.75;;;21.58;48.53
49194;BME280;35029;50.804;12.866;2023-05-14T10:59:18;97645.59;;;21.61;45.96
49194;BME280;35029;50.804;12.866;2023-05-14T11:01:44;97645.84;;;21.59;44.16
49194;BME280;35029;50.804;12.866;2023-05-14T11:04:17;97648.28;;;21.66;43.62
49194;BME280;35029;50.804;12.866;2023-05-14T11:06:44;97646.09;;;21.42;43.31
49194;BME280;35029;50.804;12.866;2023-05-14T11:09:12;97641.22;;;21.50;41.39
49194;BME280;35029;50.804;12.866;2023-05-14T11:11:41;97628.59;;;21.50;43.65
49194;BME280;35029;50.804;12.866;2023-05-14T11:14:08;97630.47;;;21.86;43.66
49194;BME280;35029;50.804;12.866;2023-05-14T11:16:34;97624.81;;;21.82;42.15
49194;BME280;35029;50.804;12.866;2023-05-14T11:19:01;97632.56;;;21.01;44.36
49194;BME280;35029;50.804;12.866;2023-05-14T11:21:29;97636.66;;;20.51;45.44
49194;BME280;35029;50.804;12.866;2023-05-14T11:24:00;97634.34;;;20.22;46.31
49194;BME280;35029;50.804;12.866;2023-05-14T11:26:25;97632.22;;;19.86;47.85
49194;BME280;35029;50.804;12.866;2023-05-14T11:28:51;97623.97;;;19.61;45.83
49194;BME280;35029;50.804;12.866;2023-05-14T11:31:17;97623.56;;;19.47;47.39
49194;BME280;35029;50.804;12.866;2023-05-14T11:33:43;97627.56;;;19.44;48.58
49194;BME280;35029;50.804;12.866;2023-05-14T11:36:28;97621.25;;;19.93;47.92
49194;BME280;35029;50.804;12.866;2023-05-14T11:38:55;97628.19;;;19.84;50.79
49194;BME280;35029;50.804;12.866;2023-05-14T11:41:20;97615.44;;;19.74;49.85
49194;BME280;35029;50.804;12.866;2023-05-14T11:43:47;97619.44;;;19.66;49.32
49194;BME280;35029;50.804;12.866;2023-05-14T11:46:16;97613.91;;;19.46;50.22
49194;BME280;35029;50.804;12.866;2023-05-14T11:48:42;97600.81;;;19.27;49.62
49194;BME280;35029;50.804;12.866;2023-05-14T11:51:08;97618.00;;;19.26;49.26
49194;BME280;35029;50.804;12.866;2023-05-14T11:53:34;97610.97;;;19.20;49.70
49194;BME280;35029;50.804;12.866;2023-05-14T11:55:59;97608.75;;;19.12;49.19
49194;BME280;35029;50.804;12.866;2023-05-14T11:58:31;97608.13;;;19.04;49.58
49194;BME280;35029;50.804;12.866;2023-05-14T12:00:57;97603.84;;;19.03;47.98
49194;BME280;35029;50.804;12.866;2023-05-14T12:03:23;97596.84;;;19.02;50.36
49194;BME280;35029;50.804;12.866;2023-05-14T12:05:57;97597.13;;;19.06;50.36
49194;BME280;35029;50.804;12.866;2023-05-14T12:08:28;97595.06;;;19.13;50.43
49194;BME280;35029;50.804;12.866;2023-05-14T12:10:55;97597.81;;;19.18;49.61
49194;BME280;35029;50.804;12.866;2023-05-14T12:13:27;97598.09;;;19.22;49.12
49194;BME280;35029;50.804;12.866;2023-05-14T12:15:55;97590.75;;;19.12;47.89
49194;BME280;35029;50.804;12.866;2023-05-14T12:18:23;97573.25;;;19.09;46.30
49194;BME280;35029;50.804;12.866;2023-05-14T12:20:49;97585.97;;;19.19;46.20
49194;BME280;35029;50.804;12.866;2023-05-14T12:23:16;97584.13;;;19.25;47.67
49194;BME280;35029;50.804;12.866;2023-05-14T12:25:49;97587.59;;;19.20;48.41
49194;BME280;35029;50.804;12.866;2023-05-14T12:28:16;97577.63;;;19.16;48.75
49194;BME280;35029;50.804;12.866;2023-05-14T12:30:42;97582.28;;;19.25;49.05
49194;BME280;35029;50.804;12.866;2023-05-14T12:33:07;97579.06;;;19.29;49.45
49194;BME280;35029;50.804;12.866;2023-05-14T12:35:34;97572.41;;;19.36;50.22
49194;BME280;35029;50.804;12.866;2023-05-14T12:38:02;97570.78;;;19.35;49.38
49194;BME280;35029;50.804;12.866;2023-05-14T12:40:28;97566.94;;;19.26;50.96
49194;BME280;35029;50.804;12.866;2023-05-14T12:42:53;97569.38;;;19.28;50.96
49194;BME280;35029;50.804;12.866;2023-05-14T12:45:19;97551.88;;;19.20;49.69
49194;BME280;35029;50.804;12.866;2023-05-14T12:47:45;97562.00;;;19.13;48.70
49194;BME280;35029;50.804;12.866;2023-05-14T12:50:10;97563.38;;;19.15;47.57